sensor_id;sensor_type;location;lat;lon;timestamp;P1;durP1;ratioP1;P2;durP2;ratioP2
60675;SDS011;46716;38.014;-7.874;2022-08-25T00:01:39;11.68;;;3.78;;
60675;SDS011;46716;38.014;-7.874;2022-08-25T00:03:43;9.32;;;3.72;;
60675;SDS011;46716;38.014;-7.874;2022-08-25T00:05:44;11.32;;;3.90;;
60675;SDS011;46716;38.014;-7.874;2022-08-25T00:07:45;11.52;;;4.35;;
60675;SDS011;46716;38.014;-7.874;2022-08-25T00:09:46;12.38;;;3.80;;
60675;SDS011;46716;38.014;-7.874;2022-08-25T00:11:48;8.82;;;3.28;;
60675;SDS011;46716;38.014;-7.874;2022-08-25T00:13:51;7.18;;;3.50;;
60675;SDS011;46716;38.014;-7.874;2022-08-25T00:15:54;8.25;;;3.45;;
60675;SDS011;46716;38.014;-7.874;2022-08-25T00:17:55;7.78;;;3.10;;
60675;SDS011;46716;38.014;-7.874;2022-08-25T00:19:56;8.00;;;2.20;;
60675;SDS011;46716;38.014;-7.874;2022-08-25T00:21:57;6.00;;;2.10;;
60675;SDS011;46716;38.014;-7.874;2022-08-25T00:24:00;5.03;;;1.95;;
60675;SDS011;46716;38.014;-7.874;2022-08-25T00:26:02;8.77;;;2.03;;
60675;SDS011;46716;38.014;-7.874;2022-08-25T00:28:03;3.13;;;1.30;;
60675;SDS011;46716;38.014;-7.874;2022-08-25T00:30:04;4.00;;;1.52;;
60675;SDS011;46716;38.014;-7.874;2022-08-25T00:32:06;3.75;;;1.50;;
60675;SDS011;46716;38.014;-7.874;2022-08-25T00:34:08;3.97;;;1.52;;
60675;SDS011;46716;38.014;-7.874;2022-08-25T00:36:11;5.35;;;1.50;;
60675;SDS011;46716;38.014;-7.874;2022-08-25T00:38:13;5.38;;;1.33;;
60675;SDS011;46716;38.014;-7.874;2022-08-25T00:40:15;3.35;;;1.55;;
60675;SDS011;46716;38.014;-7.874;2022-08-25T00:42:16;3.70;;;1.55;;
60675;SDS011;46716;38.014;-7.874;2022-08-25T00:44:20;7.53;;;1.30;;
60675;SDS011;46716;38.014;-7.874;2022-08-25T00:46:25;5.20;;;1.52;;
60675;SDS011;46716;38.014;-7.874;2022-08-25T00:48:33;5.30;;;1.52;;
60675;SDS011;46716;38.014;-7.874;2022-08-25T00:50:34;2.63;;;1.15;;
60675;SDS011;46716;38.014;-7.874;2022-08-25T00:52:51;2.92;;;1.17;;
60675;SDS011;46716;38.014;-7.874;2022-08-25T00:54:56;4.15;;;1.17;;
60675;SDS011;46716;38.014;-7.874;2022-08-25T00:57:00;4.32;;;1.30;;
60675;SDS011;46716;38.014;-7.874;2022-08-25T00:59:04;3.45;;;1.20;;
60675;SDS011;46716;38.014;-7.874;2022-08-25T01:01:05;4.75;;;1.20;;
60675;SDS011;46716;38.014;-7.874;2022-08-25T01:03:06;3.75;;;1.20;;
60675;SDS011;46716;38.014;-7.874;2022-08-25T01:05:07;2.92;;;1.10;;
60675;SDS011;46716;38.014;-7.874;2022-08-25T01:07:08;4.47;;;1.25;;
60675;SDS011;46716;38.014;-7.874;2022-08-25T01:09:10;2.95;;;1.20;;
60675;SDS011;46716;38.014;-7.874;2022-08-25T01:11:12;6.03;;;1.23;;
60675;SDS011;46716;38.014;-7.874;2022-08-25T01:13:18;5.13;;;1.73;;
60675;SDS011;46716;38.014;-7.874;2022-08-25T01:15:23;2.15;;;1.00;;
60675;SDS011;46716;38.014;-7.874;2022-08-25T01:17:24;4.05;;;1.15;;
60675;SDS011;46716;38.014;-7.874;2022-08-25T01:19:27;2.90;;;1.23;;
60675;SDS011;46716;38.014;-7.874;2022-08-25T01:21:29;4.10;;;1.40;;
60675;SDS011;46716;38.014;-7.874;2022-08-25T01:23:36;2.53;;;1.08;;
60675;SDS011;46716;38.014;-7.874;2022-08-25T01:28:09;5.93;;;1.45;;
60675;SDS011;46716;38.014;-7.874;2022-08-25T01:30:10;5.78;;;1.70;;
60675;SDS011;46716;38.014;-7.874;2022-08-25T01:32:12;4.28;;;1.60;;
60675;SDS011;46716;38.014;-7.874;2022-08-25T01:36:19;7.35;;;1.70;;
60675;SDS011;46716;38.014;-7.874;2022-08-25T01:38:21;4.63;;;1.92;;
60675;SDS011;46716;38.014;-7.874;2022-08-25T01:40:22;6.32;;;2.00;;
60675;SDS011;46716;38.014;-7.874;2022-08-25T01:44:52;6.82;;;2.15;;
60675;SDS011;46716;38.014;-7.874;2022-08-25T01:46:53;4.78;;;1.70;;
60675;SDS011;46716;38.014;-7.874;2022-08-25T01:48:54;6.72;;;1.70;;
60675;SDS011;46716;38.014;-7.874;2022-08-25T01:50:55;8.05;;;2.10;;
60675;SDS011;46716;38.014;-7.874;2022-08-25T01:55:06;3.42;;;1.27;;
60675;SDS011;46716;38.014;-7.874;2022-08-25T01:57:07;3.72;;;1.40;;
60675;SDS011;46716;38.014;-7.874;2022-08-25T01:59:08;4.95;;;1.52;;
60675;SDS011;46716;38.014;-7.874;2022-08-25T02:01:11;4.57;;;1.60;;
60675;SDS011;46716;38.014;-7.874;2022-08-25T02:03:15;5.38;;;1.45;;
60675;SDS011;46716;38.014;-7.874;2022-08-25T02:05:17;3.53;;;1.50;;
60675;SDS011;46716;38.014;-7.874;2022-08-25T02:07:19;3.40;;;1.40;;
60675;SDS011;46716;38.014;-7.874;2022-08-25T02:09:20;5.53;;;1.42;;
60675;SDS011;46716;38.014;-7.874;2022-08-25T02:11:21;7.78;;;1.77;;
60675;SDS011;46716;38.014;-7.874;2022-08-25T02:15:24;6.35;;;2.08;;
60675;SDS011;46716;38.014;-7.874;2022-08-25T02:17:25;5.25;;;2.00;;
60675;SDS011;46716;38.014;-7.874;2022-08-25T02:19:26;4.25;;;1.85;;
60675;SDS011;46716;38.014;-7.874;2022-08-25T02:21:30;5.18;;;2.03;;
60675;SDS011;46716;38.014;-7.874;2022-08-25T02:23:31;4.20;;;1.98;;
60675;SDS011;46716;38.014;-7.874;2022-08-25T02:25:32;4.80;;;2.05;;
60675;SDS011;46716;38.014;-7.874;2022-08-25T02:27:33;6.40;;;2.83;;
60675;SDS011;46716;38.014;-7.874;2022-08-25T02:29:34;4.00;;;1.73;;
60675;SDS011;46716;38.014;-7.874;2022-08-25T02:31:35;6.28;;;2.28;;
60675;SDS011;46716;38.014;-7.874;2022-08-25T02:33:37;4.85;;;1.88;;
60675;SDS011;46716;38.014;-7.874;2022-08-25T02:35:38;3.42;;;1.60;;
60675;SDS011;46716;38.014;-7.874;2022-08-25T02:37:39;4.47;;;1.70;;
60675;SDS011;46716;38.014;-7.874;2022-08-25T02:39:40;4.60;;;1.73;;
60675;SDS011;46716;38.014;-7.874;2022-08-25T02:41:41;4.25;;;1.70;;
60675;SDS011;46716;38.014;-7.874;2022-08-25T02:43:42;3.28;;;1.50;;
60675;SDS011;46716;38.014;-7.874;2022-08-25T02:45:45;5.28;;;1.85;;
60675;SDS011;46716;38.014;-7.874;2022-08-25T02:47:46;4.05;;;1.67;;
60675;SDS011;46716;38.014;-7.874;2022-08-25T02:49:47;3.72;;;1.38;;
60675;SDS011;46716;38.014;-7.874;2022-08-25T02:51:48;4.47;;;1.58;;
60675;SDS011;46716;38.014;-7.874;2022-08-25T02:53:49;5.90;;;1.70;;
60675;SDS011;46716;38.014;-7.874;2022-08-25T02:55:51;3.70;;;1.53;;
60675;SDS011;46716;38.014;-7.874;2022-08-25T02:57:52;3.35;;;1.50;;
60675;SDS011;46716;38.014;-7.874;2022-08-25T02:59:52;7.68;;;1.30;;
60675;SDS011;46716;38.014;-7.874;2022-08-25T03:01:54;3.60;;;1.27;;
60675;SDS011;46716;38.014;-7.874;2022-08-25T03:03:55;2.92;;;1.25;;
60675;SDS011;46716;38.014;-7.874;2022-08-25T03:05:56;2.38;;;1.00;;
60675;SDS011;46716;38.014;-7.874;2022-08-25T03:07:57;4.82;;;1.05;;
60675;SDS011;46716;38.014;-7.874;2022-08-25T03:09:59;5.13;;;1.17;;
60675;SDS011;46716;38.014;-7.874;2022-08-25T03:12:05;5.13;;;1.33;;
60675;SDS011;46716;38.014;-7.874;2022-08-25T03:14:07;4.60;;;1.65;;
60675;SDS011;46716;38.014;-7.874;2022-08-25T03:16:10;3.67;;;1.10;;
60675;SDS011;46716;38.014;-7.874;2022-08-25T03:18:11;3.97;;;1.20;;
60675;SDS011;46716;38.014;-7.874;2022-08-25T03:20:12;4.25;;;1.35;;
60675;SDS011;46716;38.014;-7.874;2022-08-25T03:22:13;3.05;;;1.00;;
60675;SDS011;46716;38.014;-7.874;2022-08-25T03:24:13;2.83;;;0.95;;
60675;SDS011;46716;38.014;-7.874;2022-08-25T03:26:15;2.40;;;1.08;;
60675;SDS011;46716;38.014;-7.874;2022-08-25T03:28:34;3.75;;;1.00;;
60675;SDS011;46716;38.014;-7.874;2022-08-25T03:30:35;4.40;;;1.10;;
60675;SDS011;46716;38.014;-7.874;2022-08-25T03:32:36;3.30;;;1.10;;
60675;SDS011;46716;38.014;-7.874;2022-08-25T03:34:37;2.05;;;0.65;;
60675;SDS011;46716;38.014;-7.874;2022-08-25T03:36:38;1.77;;;0.82;;
60675;SDS011;46716;38.014;-7.874;2022-08-25T03:38:40;4.28;;;1.02;;
60675;SDS011;46716;38.014;-7.874;2022-08-25T03:40:41;1.98;;;0.60;;
60675;SDS011;46716;38.014;-7.874;2022-08-25T03:42:43;4.18;;;0.90;;
60675;SDS011;46716;38.014;-7.874;2022-08-25T03:44:45;4.65;;;0.80;;
60675;SDS011;46716;38.014;-7.874;2022-08-25T03:46:48;1.80;;;0.75;;
60675;SDS011;46716;38.014;-7.874;2022-08-25T03:48:51;1.70;;;0.60;;
60675;SDS011;46716;38.014;-7.874;2022-08-25T03:50:52;2.85;;;0.52;;
60675;SDS011;46716;38.014;-7.874;2022-08-25T03:52:54;3.80;;;0.70;;
60675;SDS011;46716;38.014;-7.874;2022-08-25T03:54:56;2.95;;;0.70;;
60675;SDS011;46716;38.014;-7.874;2022-08-25T03:56:57;2.15;;;0.75;;
60675;SDS011;46716;38.014;-7.874;2022-08-25T03:58:59;1.75;;;0.80;;
60675;SDS011;46716;38.014;-7.874;2022-08-25T04:00:59;3.25;;;0.80;;
60675;SDS011;46716;38.014;-7.874;2022-08-25T04:03:01;1.52;;;0.73;;
60675;SDS011;46716;38.014;-7.874;2022-08-25T04:05:02;2.50;;;0.77;;
60675;SDS011;46716;38.014;-7.874;2022-08-25T04:07:03;2.00;;;1.20;;
60675;SDS011;46716;38.014;-7.874;2022-08-25T04:09:04;2.92;;;0.90;;
60675;SDS011;46716;38.014;-7.874;2022-08-25T04:11:06;2.47;;;0.70;;
60675;SDS011;46716;38.014;-7.874;2022-08-25T04:13:09;1.35;;;0.80;;
60675;SDS011;46716;38.014;-7.874;2022-08-25T04:15:11;1.77;;;0.70;;
60675;SDS011;46716;38.014;-7.874;2022-08-25T04:17:12;4.18;;;1.00;;
60675;SDS011;46716;38.014;-7.874;2022-08-25T04:19:13;2.58;;;0.93;;
60675;SDS011;46716;38.014;-7.874;2022-08-25T04:21:14;1.40;;;0.80;;
60675;SDS011;46716;38.014;-7.874;2022-08-25T04:23:16;1.55;;;0.80;;
60675;SDS011;46716;38.014;-7.874;2022-08-25T04:25:17;2.88;;;0.90;;
60675;SDS011;46716;38.014;-7.874;2022-08-25T04:27:18;2.42;;;1.17;;
60675;SDS011;46716;38.014;-7.874;2022-08-25T04:29:20;2.35;;;0.90;;
60675;SDS011;46716;38.014;-7.874;2022-08-25T04:31:22;3.30;;;1.00;;
60675;SDS011;46716;38.014;-7.874;2022-08-25T04:33:23;2.17;;;0.95;;
60675;SDS011;46716;38.014;-7.874;2022-08-25T04:35:24;2.22;;;1.20;;
60675;SDS011;46716;38.014;-7.874;2022-08-25T04:37:25;3.42;;;1.25;;
60675;SDS011;46716;38.014;-7.874;2022-08-25T04:39:26;3.58;;;1.25;;
60675;SDS011;46716;38.014;-7.874;2022-08-25T04:41:27;2.58;;;1.13;;
60675;SDS011;46716;38.014;-7.874;2022-08-25T04:43:29;3.73;;;1.47;;
60675;SDS011;46716;38.014;-7.874;2022-08-25T04:45:35;3.13;;;1.33;;
60675;SDS011;46716;38.014;-7.874;2022-08-25T04:47:37;2.58;;;1.10;;
60675;SDS011;46716;38.014;-7.874;2022-08-25T04:49:39;4.43;;;1.48;;
60675;SDS011;46716;38.014;-7.874;2022-08-25T04:51:40;2.67;;;1.23;;
60675;SDS011;46716;38.014;-7.874;2022-08-25T04:53:41;4.55;;;1.33;;
60675;SDS011;46716;38.014;-7.874;2022-08-25T04:55:43;2.75;;;1.42;;
60675;SDS011;46716;38.014;-7.874;2022-08-25T04:57:46;5.05;;;1.58;;
60675;SDS011;46716;38.014;-7.874;2022-08-25T04:59:47;9.30;;;1.77;;
60675;SDS011;46716;38.014;-7.874;2022-08-25T05:01:48;3.55;;;1.55;;
60675;SDS011;46716;38.014;-7.874;2022-08-25T05:03:58;4.53;;;2.38;;
60675;SDS011;46716;38.014;-7.874;2022-08-25T05:06:00;5.05;;;2.20;;
60675;SDS011;46716;38.014;-7.874;2022-08-25T05:08:02;3.42;;;1.45;;
60675;SDS011;46716;38.014;-7.874;2022-08-25T05:10:04;7.03;;;2.15;;
60675;SDS011;46716;38.014;-7.874;2022-08-25T05:12:05;5.60;;;2.58;;
60675;SDS011;46716;38.014;-7.874;2022-08-25T05:14:06;4.82;;;2.03;;
60675;SDS011;46716;38.014;-7.874;2022-08-25T05:16:11;5.93;;;2.50;;
60675;SDS011;46716;38.014;-7.874;2022-08-25T05:18:12;6.72;;;2.50;;
60675;SDS011;46716;38.014;-7.874;2022-08-25T05:20:13;5.82;;;2.13;;
60675;SDS011;46716;38.014;-7.874;2022-08-25T05:22:14;5.72;;;2.38;;
60675;SDS011;46716;38.014;-7.874;2022-08-25T05:24:15;7.78;;;3.03;;
60675;SDS011;46716;38.014;-7.874;2022-08-25T05:26:19;6.18;;;2.47;;
60675;SDS011;46716;38.014;-7.874;2022-08-25T05:28:21;8.25;;;2.92;;
60675;SDS011;46716;38.014;-7.874;2022-08-25T05:30:22;6.63;;;2.42;;
60675;SDS011;46716;38.014;-7.874;2022-08-25T05:32:23;5.93;;;2.38;;
60675;SDS011;46716;38.014;-7.874;2022-08-25T05:34:24;6.20;;;2.80;;
60675;SDS011;46716;38.014;-7.874;2022-08-25T05:36:25;6.13;;;3.08;;
60675;SDS011;46716;38.014;-7.874;2022-08-25T05:38:27;6.10;;;2.38;;
60675;SDS011;46716;38.014;-7.874;2022-08-25T05:40:29;6.53;;;2.38;;
60675;SDS011;46716;38.014;-7.874;2022-08-25T05:42:30;5.03;;;2.22;;
60675;SDS011;46716;38.014;-7.874;2022-08-25T05:44:31;5.78;;;2.28;;
60675;SDS011;46716;38.014;-7.874;2022-08-25T05:46:32;5.75;;;2.17;;
60675;SDS011;46716;38.014;-7.874;2022-08-25T05:48:34;3.95;;;2.03;;
60675;SDS011;46716;38.014;-7.874;2022-08-25T05:50:35;5.68;;;2.00;;
60675;SDS011;46716;38.014;-7.874;2022-08-25T05:52:36;4.47;;;2.10;;
60675;SDS011;46716;38.014;-7.874;2022-08-25T05:54:38;4.53;;;2.22;;
60675;SDS011;46716;38.014;-7.874;2022-08-25T05:56:41;7.18;;;2.15;;
60675;SDS011;46716;38.014;-7.874;2022-08-25T05:58:44;4.70;;;2.55;;
60675;SDS011;46716;38.014;-7.874;2022-08-25T06:00:46;8.70;;;2.50;;
60675;SDS011;46716;38.014;-7.874;2022-08-25T06:02:47;10.70;;;2.63;;
60675;SDS011;46716;38.014;-7.874;2022-08-25T06:04:49;6.03;;;2.80;;
60675;SDS011;46716;38.014;-7.874;2022-08-25T06:06:50;6.35;;;2.80;;
60675;SDS011;46716;38.014;-7.874;2022-08-25T06:08:54;6.28;;;2.30;;
60675;SDS011;46716;38.014;-7.874;2022-08-25T06:10:55;4.82;;;2.50;;
60675;SDS011;46716;38.014;-7.874;2022-08-25T06:12:56;5.72;;;3.00;;
60675;SDS011;46716;38.014;-7.874;2022-08-25T06:14:57;8.15;;;2.72;;
60675;SDS011;46716;38.014;-7.874;2022-08-25T06:16:58;6.28;;;2.58;;
60675;SDS011;46716;38.014;-7.874;2022-08-25T06:19:00;7.65;;;2.40;;
60675;SDS011;46716;38.014;-7.874;2022-08-25T06:21:13;5.60;;;2.47;;
60675;SDS011;46716;38.014;-7.874;2022-08-25T06:23:14;6.38;;;2.58;;
60675;SDS011;46716;38.014;-7.874;2022-08-25T06:25:19;5.82;;;2.47;;
60675;SDS011;46716;38.014;-7.874;2022-08-25T06:27:22;4.82;;;2.50;;
60675;SDS011;46716;38.014;-7.874;2022-08-25T06:29:23;5.60;;;2.55;;
60675;SDS011;46716;38.014;-7.874;2022-08-25T06:31:25;6.28;;;2.45;;
60675;SDS011;46716;38.014;-7.874;2022-08-25T06:33:26;6.07;;;2.97;;
60675;SDS011;46716;38.014;-7.874;2022-08-25T06:35:27;6.88;;;3.05;;
60675;SDS011;46716;38.014;-7.874;2022-08-25T06:37:29;5.80;;;3.20;;
60675;SDS011;46716;38.014;-7.874;2022-08-25T06:39:30;6.07;;;2.53;;
60675;SDS011;46716;38.014;-7.874;2022-08-25T06:41:31;6.28;;;3.05;;
60675;SDS011;46716;38.014;-7.874;2022-08-25T06:43:32;5.80;;;3.00;;
60675;SDS011;46716;38.014;-7.874;2022-08-25T06:45:33;7.07;;;2.63;;
60675;SDS011;46716;38.014;-7.874;2022-08-25T06:47:35;5.78;;;2.78;;
60675;SDS011;46716;38.014;-7.874;2022-08-25T06:49:36;7.78;;;3.22;;
60675;SDS011;46716;38.014;-7.874;2022-08-25T06:51:37;5.88;;;2.97;;
60675;SDS011;46716;38.014;-7.874;2022-08-25T06:53:39;8.20;;;3.05;;
60675;SDS011;46716;38.014;-7.874;2022-08-25T06:55:40;5.20;;;2.73;;
60675;SDS011;46716;38.014;-7.874;2022-08-25T06:57:41;6.32;;;2.75;;
60675;SDS011;46716;38.014;-7.874;2022-08-25T06:59:42;9.57;;;2.92;;
60675;SDS011;46716;38.014;-7.874;2022-08-25T07:01:43;5.05;;;2.60;;
60675;SDS011;46716;38.014;-7.874;2022-08-25T07:03:44;4.47;;;2.45;;
60675;SDS011;46716;38.014;-7.874;2022-08-25T07:05:49;4.53;;;2.25;;
60675;SDS011;46716;38.014;-7.874;2022-08-25T07:07:52;6.40;;;2.33;;
60675;SDS011;46716;38.014;-7.874;2022-08-25T07:09:53;3.30;;;1.77;;
60675;SDS011;46716;38.014;-7.874;2022-08-25T07:11:54;3.97;;;2.13;;
60675;SDS011;46716;38.014;-7.874;2022-08-25T07:13:55;3.95;;;2.15;;
60675;SDS011;46716;38.014;-7.874;2022-08-25T07:15:56;3.92;;;1.85;;
60675;SDS011;46716;38.014;-7.874;2022-08-25T07:17:57;3.83;;;1.90;;
60675;SDS011;46716;38.014;-7.874;2022-08-25T07:19:58;5.88;;;2.30;;
60675;SDS011;46716;38.014;-7.874;2022-08-25T07:21:59;5.50;;;2.70;;
60675;SDS011;46716;38.014;-7.874;2022-08-25T07:24:01;7.55;;;2.90;;
60675;SDS011;46716;38.014;-7.874;2022-08-25T07:28:14;7.90;;;3.63;;
60675;SDS011;46716;38.014;-7.874;2022-08-25T07:30:16;8.60;;;3.60;;
60675;SDS011;46716;38.014;-7.874;2022-08-25T07:32:17;8.70;;;3.45;;
60675;SDS011;46716;38.014;-7.874;2022-08-25T07:34:19;8.57;;;3.40;;
60675;SDS011;46716;38.014;-7.874;2022-08-25T07:36:38;8.82;;;3.78;;
60675;SDS011;46716;38.014;-7.874;2022-08-25T07:38:39;6.40;;;3.00;;
60675;SDS011;46716;38.014;-7.874;2022-08-25T07:40:40;5.82;;;3.15;;
60675;SDS011;46716;38.014;-7.874;2022-08-25T07:42:41;7.63;;;3.03;;
60675;SDS011;46716;38.014;-7.874;2022-08-25T07:44:42;6.28;;;2.67;;
60675;SDS011;46716;38.014;-7.874;2022-08-25T07:46:43;7.95;;;2.72;;
60675;SDS011;46716;38.014;-7.874;2022-08-25T07:48:44;5.60;;;2.55;;
60675;SDS011;46716;38.014;-7.874;2022-08-25T07:50:45;9.23;;;2.75;;
60675;SDS011;46716;38.014;-7.874;2022-08-25T07:52:47;7.05;;;2.47;;
60675;SDS011;46716;38.014;-7.874;2022-08-25T07:54:48;7.13;;;3.00;;
60675;SDS011;46716;38.014;-7.874;2022-08-25T07:56:53;6.00;;;2.88;;
60675;SDS011;46716;38.014;-7.874;2022-08-25T07:58:54;7.57;;;2.50;;
60675;SDS011;46716;38.014;-7.874;2022-08-25T08:00:55;5.43;;;2.30;;
60675;SDS011;46716;38.014;-7.874;2022-08-25T08:02:56;4.63;;;2.47;;
60675;SDS011;46716;38.014;-7.874;2022-08-25T08:04:58;9.02;;;2.40;;
60675;SDS011;46716;38.014;-7.874;2022-08-25T08:06:59;5.78;;;2.50;;
60675;SDS011;46716;38.014;-7.874;2022-08-25T08:09:02;5.15;;;2.40;;
60675;SDS011;46716;38.014;-7.874;2022-08-25T08:11:03;5.40;;;2.25;;
60675;SDS011;46716;38.014;-7.874;2022-08-25T08:13:05;6.03;;;2.40;;
60675;SDS011;46716;38.014;-7.874;2022-08-25T08:17:08;5.25;;;2.28;;
60675;SDS011;46716;38.014;-7.874;2022-08-25T08:19:09;4.80;;;2.17;;
60675;SDS011;46716;38.014;-7.874;2022-08-25T08:21:14;4.63;;;2.10;;
60675;SDS011;46716;38.014;-7.874;2022-08-25T08:23:19;6.07;;;2.35;;
60675;SDS011;46716;38.014;-7.874;2022-08-25T08:25:20;6.53;;;2.20;;
60675;SDS011;46716;38.014;-7.874;2022-08-25T08:27:21;8.40;;;2.45;;
60675;SDS011;46716;38.014;-7.874;2022-08-25T08:29:22;5.45;;;2.13;;
60675;SDS011;46716;38.014;-7.874;2022-08-25T08:31:24;5.00;;;2.13;;
60675;SDS011;46716;38.014;-7.874;2022-08-25T08:33:26;3.55;;;1.98;;
60675;SDS011;46716;38.014;-7.874;2022-08-25T08:35:28;5.85;;;2.15;;
60675;SDS011;46716;38.014;-7.874;2022-08-25T08:37:29;5.40;;;2.25;;
60675;SDS011;46716;38.014;-7.874;2022-08-25T08:39:31;4.10;;;2.05;;
60675;SDS011;46716;38.014;-7.874;2022-08-25T08:46:20;3.60;;;1.80;;
60675;SDS011;46716;38.014;-7.874;2022-08-25T08:51:13;4.28;;;1.88;;
60675;SDS011;46716;38.014;-7.874;2022-08-25T08:55:44;4.45;;;2.00;;
60675;SDS011;46716;38.014;-7.874;2022-08-25T08:57:49;3.55;;;1.88;;
60675;SDS011;46716;38.014;-7.874;2022-08-25T08:59:58;4.53;;;1.67;;
60675;SDS011;46716;38.014;-7.874;2022-08-25T09:02:01;3.13;;;1.60;;
60675;SDS011;46716;38.014;-7.874;2022-08-25T09:04:10;3.33;;;1.83;;
60675;SDS011;46716;38.014;-7.874;2022-08-25T09:06:31;5.00;;;1.88;;
60675;SDS011;46716;38.014;-7.874;2022-08-25T09:08:38;3.42;;;1.58;;
60675;SDS011;46716;38.014;-7.874;2022-08-25T09:15:15;3.70;;;1.67;;
60675;SDS011;46716;38.014;-7.874;2022-08-25T09:26:42;4.80;;;1.98;;
60675;SDS011;46716;38.014;-7.874;2022-08-25T09:28:50;3.35;;;1.70;;
60675;SDS011;46716;38.014;-7.874;2022-08-25T09:31:04;7.32;;;1.90;;
60675;SDS011;46716;38.014;-7.874;2022-08-25T09:33:17;5.22;;;2.10;;
60675;SDS011;46716;38.014;-7.874;2022-08-25T09:35:23;4.10;;;2.00;;
60675;SDS011;46716;38.014;-7.874;2022-08-25T09:37:27;4.35;;;1.48;;
60675;SDS011;46716;38.014;-7.874;2022-08-25T09:39:28;4.40;;;1.90;;
60675;SDS011;46716;38.014;-7.874;2022-08-25T09:43:53;3.30;;;1.60;;
60675;SDS011;46716;38.014;-7.874;2022-08-25T09:46:01;3.40;;;1.73;;
60675;SDS011;46716;38.014;-7.874;2022-08-25T09:48:23;3.40;;;1.80;;
60675;SDS011;46716;38.014;-7.874;2022-08-25T09:50:38;4.15;;;1.75;;
60675;SDS011;46716;38.014;-7.874;2022-08-25T09:52:40;4.97;;;2.13;;
60675;SDS011;46716;38.014;-7.874;2022-08-25T09:54:41;7.65;;;2.15;;
60675;SDS011;46716;38.014;-7.874;2022-08-25T09:56:57;4.07;;;1.80;;
60675;SDS011;46716;38.014;-7.874;2022-08-25T10:01:22;4.10;;;1.92;;
60675;SDS011;46716;38.014;-7.874;2022-08-25T10:03:24;3.50;;;1.53;;
60675;SDS011;46716;38.014;-7.874;2022-08-25T10:05:25;4.60;;;2.05;;
60675;SDS011;46716;38.014;-7.874;2022-08-25T10:07:28;5.78;;;2.22;;
60675;SDS011;46716;38.014;-7.874;2022-08-25T10:09:38;3.80;;;1.70;;
60675;SDS011;46716;38.014;-7.874;2022-08-25T10:11:42;4.78;;;1.80;;
60675;SDS011;46716;38.014;-7.874;2022-08-25T10:13:48;4.20;;;1.80;;
60675;SDS011;46716;38.014;-7.874;2022-08-25T10:18:26;3.42;;;1.55;;
60675;SDS011;46716;38.014;-7.874;2022-08-25T10:20:28;6.25;;;1.80;;
60675;SDS011;46716;38.014;-7.874;2022-08-25T10:22:29;5.45;;;1.83;;
60675;SDS011;46716;38.014;-7.874;2022-08-25T10:24:33;5.68;;;1.67;;
60675;SDS011;46716;38.014;-7.874;2022-08-25T10:26:46;3.65;;;1.80;;
60675;SDS011;46716;38.014;-7.874;2022-08-25T10:29:10;4.45;;;1.38;;
60675;SDS011;46716;38.014;-7.874;2022-08-25T10:31:51;5.75;;;1.60;;
60675;SDS011;46716;38.014;-7.874;2022-08-25T10:33:54;3.30;;;1.50;;
60675;SDS011;46716;38.014;-7.874;2022-08-25T10:36:22;3.85;;;1.45;;
60675;SDS011;46716;38.014;-7.874;2022-08-25T10:38:41;4.88;;;1.60;;
60675;SDS011;46716;38.014;-7.874;2022-08-25T10:40:53;2.88;;;1.38;;
60675;SDS011;46716;38.014;-7.874;2022-08-25T10:43:06;4.15;;;1.50;;
60675;SDS011;46716;38.014;-7.874;2022-08-25T10:45:14;3.95;;;1.50;;
60675;SDS011;46716;38.014;-7.874;2022-08-25T10:47:56;3.42;;;1.40;;
60675;SDS011;46716;38.014;-7.874;2022-08-25T10:52:22;3.75;;;1.20;;
60675;SDS011;46716;38.014;-7.874;2022-08-25T10:56:57;2.35;;;1.45;;
60675;SDS011;46716;38.014;-7.874;2022-08-25T11:01:41;2.53;;;1.45;;
60675;SDS011;46716;38.014;-7.874;2022-08-25T11:03:54;2.67;;;1.48;;
60675;SDS011;46716;38.014;-7.874;2022-08-25T11:06:10;2.97;;;1.40;;
60675;SDS011;46716;38.014;-7.874;2022-08-25T11:08:31;3.95;;;1.30;;
60675;SDS011;46716;38.014;-7.874;2022-08-25T11:13:54;2.55;;;1.40;;
60675;SDS011;46716;38.014;-7.874;2022-08-25T11:16:23;2.47;;;1.30;;
60675;SDS011;46716;38.014;-7.874;2022-08-25T11:18:11;4.28;;;1.80;;
60675;SDS011;46716;38.014;-7.874;2022-08-25T11:20:15;2.75;;;1.13;;
60675;SDS011;46716;38.014;-7.874;2022-08-25T11:26:50;3.45;;;1.50;;
60675;SDS011;46716;38.014;-7.874;2022-08-25T11:29:03;4.43;;;1.50;;
60675;SDS011;46716;38.014;-7.874;2022-08-25T11:31:05;3.33;;;1.30;;
60675;SDS011;46716;38.014;-7.874;2022-08-25T11:33:10;2.72;;;1.40;;
60675;SDS011;46716;38.014;-7.874;2022-08-25T11:35:39;3.20;;;1.50;;
60675;SDS011;46716;38.014;-7.874;2022-08-25T11:40:25;2.67;;;1.42;;
60675;SDS011;46716;38.014;-7.874;2022-08-25T11:51:44;7.70;;;1.48;;
60675;SDS011;46716;38.014;-7.874;2022-08-25T11:53:50;3.05;;;1.48;;
60675;SDS011;46716;38.014;-7.874;2022-08-25T11:56:37;4.05;;;1.30;;
60675;SDS011;46716;38.014;-7.874;2022-08-25T11:58:42;2.85;;;1.38;;
60675;SDS011;46716;38.014;-7.874;2022-08-25T12:02:54;3.00;;;1.27;;
60675;SDS011;46716;38.014;-7.874;2022-08-25T12:04:55;3.20;;;1.35;;
60675;SDS011;46716;38.014;-7.874;2022-08-25T12:11:12;2.05;;;1.15;;
60675;SDS011;46716;38.014;-7.874;2022-08-25T12:13:47;3.28;;;1.30;;
60675;SDS011;46716;38.014;-7.874;2022-08-25T12:20:09;5.20;;;1.30;;
60675;SDS011;46716;38.014;-7.874;2022-08-25T12:24:13;2.27;;;1.20;;
60675;SDS011;46716;38.014;-7.874;2022-08-25T12:26:33;2.17;;;1.00;;
60675;SDS011;46716;38.014;-7.874;2022-08-25T12:28:52;2.33;;;1.20;;
60675;SDS011;46716;38.014;-7.874;2022-08-25T12:34:14;4.07;;;1.50;;
60675;SDS011;46716;38.014;-7.874;2022-08-25T12:36:05;4.03;;;1.42;;
60675;SDS011;46716;38.014;-7.874;2022-08-25T12:38:10;3.38;;;1.50;;
60675;SDS011;46716;38.014;-7.874;2022-08-25T12:40:21;3.15;;;1.88;;
60675;SDS011;46716;38.014;-7.874;2022-08-25T12:42:32;3.65;;;1.52;;
60675;SDS011;46716;38.014;-7.874;2022-08-25T12:44:38;4.82;;;1.67;;
60675;SDS011;46716;38.014;-7.874;2022-08-25T12:46:46;3.25;;;1.50;;
60675;SDS011;46716;38.014;-7.874;2022-08-25T12:53:43;4.13;;;1.70;;
60675;SDS011;46716;38.014;-7.874;2022-08-25T12:55:48;3.72;;;1.50;;
60675;SDS011;46716;38.014;-7.874;2022-08-25T12:57:53;6.15;;;1.67;;
60675;SDS011;46716;38.014;-7.874;2022-08-25T13:00:02;3.80;;;1.20;;
60675;SDS011;46716;38.014;-7.874;2022-08-25T13:07:12;3.25;;;1.38;;
60675;SDS011;46716;38.014;-7.874;2022-08-25T13:09:48;5.38;;;1.55;;
60675;SDS011;46716;38.014;-7.874;2022-08-25T13:12:12;4.85;;;1.33;;
60675;SDS011;46716;38.014;-7.874;2022-08-25T13:14:28;2.97;;;1.08;;
60675;SDS011;46716;38.014;-7.874;2022-08-25T13:16:32;5.28;;;1.60;;
60675;SDS011;46716;38.014;-7.874;2022-08-25T13:18:35;2.80;;;1.23;;
60675;SDS011;46716;38.014;-7.874;2022-08-25T13:20:37;3.25;;;1.60;;
60675;SDS011;46716;38.014;-7.874;2022-08-25T13:22:38;4.20;;;1.47;;
60675;SDS011;46716;38.014;-7.874;2022-08-25T13:24:40;3.13;;;1.55;;
60675;SDS011;46716;38.014;-7.874;2022-08-25T13:26:42;4.38;;;1.63;;
60675;SDS011;46716;38.014;-7.874;2022-08-25T13:28:46;6.28;;;1.70;;
60675;SDS011;46716;38.014;-7.874;2022-08-25T13:30:55;4.93;;;1.80;;
60675;SDS011;46716;38.014;-7.874;2022-08-25T13:33:18;5.05;;;2.05;;
60675;SDS011;46716;38.014;-7.874;2022-08-25T13:35:23;4.30;;;2.03;;
60675;SDS011;46716;38.014;-7.874;2022-08-25T13:37:26;4.03;;;2.08;;
60675;SDS011;46716;38.014;-7.874;2022-08-25T13:39:27;5.97;;;2.20;;
60675;SDS011;46716;38.014;-7.874;2022-08-25T13:41:29;7.35;;;1.98;;
60675;SDS011;46716;38.014;-7.874;2022-08-25T13:43:30;5.73;;;1.93;;
60675;SDS011;46716;38.014;-7.874;2022-08-25T13:45:34;5.50;;;2.00;;
60675;SDS011;46716;38.014;-7.874;2022-08-25T13:47:39;4.00;;;1.90;;
60675;SDS011;46716;38.014;-7.874;2022-08-25T13:49:43;3.50;;;1.70;;
60675;SDS011;46716;38.014;-7.874;2022-08-25T13:51:50;5.47;;;2.03;;
60675;SDS011;46716;38.014;-7.874;2022-08-25T13:53:54;5.07;;;1.83;;
60675;SDS011;46716;38.014;-7.874;2022-08-25T13:55:58;13.93;;;2.80;;